createdAt,value
2016-07-29T00:00:36.165Z,23.65
2016-07-29T00:01:36.182Z,23.51
2016-07-29T00:02:36.206Z,23.55
2016-07-29T00:03:36.234Z,23.6
2016-07-29T00:04:36.259Z,23.65
2016-07-29T00:05:36.287Z,23.54
2016-07-29T00:06:36.313Z,23.58
2016-07-29T00:07:36.337Z,23.58
2016-07-29T00:08:36.368Z,23.55
2016-07-29T00:09:36.388Z,23.57
2016-07-29T00:10:36.418Z,23.58
2016-07-29T00:11:36.449Z,23.58
2016-07-29T00:12:36.467Z,23.58
2016-07-29T00:13:36.497Z,23.58
2016-07-29T00:14:36.523Z,23.5
2016-07-29T00:15:36.554Z,23.6
2016-07-29T00:16:36.572Z,23.55
2016-07-29T00:17:36.598Z,23.54
2016-07-29T00:18:36.627Z,23.54
2016-07-29T00:19:36.653Z,23.47
2016-07-29T00:20:36.682Z,23.5
2016-07-29T00:21:36.707Z,23.48
2016-07-29T00:22:36.729Z,23.48
2016-07-29T00:23:36.758Z,23.43
2016-07-29T00:24:36.784Z,23.47
2016-07-29T00:25:36.810Z,23.53
2016-07-29T00:26:36.837Z,23.43
2016-07-29T00:27:36.865Z,23.53
2016-07-29T00:28:36.889Z,23.48
2016-07-29T00:29:36.912Z,23.48
2016-07-29T00:30:36.939Z,23.5
2016-07-29T00:31:36.972Z,23.51
2016-07-29T00:32:36.992Z,23.47
2016-07-29T00:33:37.017Z,23.5
2016-07-29T00:34:37.044Z,23.51
2016-07-29T00:35:37.071Z,23.46
2016-07-29T00:36:37.095Z,23.47
2016-07-29T00:37:37.820Z,23.5
2016-07-29T00:38:37.147Z,23.48
2016-07-29T00:39:37.225Z,23.43
2016-07-29T00:40:37.202Z,23.46
2016-07-29T00:41:37.232Z,23.47
2016-07-29T00:42:37.951Z,23.46
2016-07-29T00:43:37.278Z,23.53
2016-07-29T00:44:37.307Z,23.43
2016-07-29T00:45:37.330Z,23.39
2016-07-29T00:46:37.360Z,23.39
2016-07-29T00:47:37.388Z,23.46
2016-07-29T00:48:37.408Z,23.5
2016-07-29T00:49:37.438Z,23.53
2016-07-29T00:50:37.462Z,23.51
2016-07-29T00:51:37.505Z,23.51
2016-07-29T00:52:37.518Z,23.4
2016-07-29T00:53:37.540Z,23.43
2016-07-29T00:54:37.570Z,23.47
2016-07-29T00:55:37.596Z,23.46
2016-07-29T00:56:37.631Z,23.48
2016-07-29T00:57:37.649Z,23.39
2016-07-29T00:58:37.669Z,23.51
2016-07-29T00:59:37.700Z,23.39
2016-07-29T01:00:37.748Z,23.47
2016-07-29T01:01:38.451Z,23.4
2016-07-29T01:02:37.778Z,23.5
2016-07-29T01:03:37.804Z,23.38
2016-07-29T01:04:37.829Z,23.43
2016-07-29T01:05:37.856Z,23.39
2016-07-29T01:06:37.880Z,23.42
2016-07-29T01:07:37.906Z,23.43
2016-07-29T01:08:37.936Z,23.33
2016-07-29T01:09:37.961Z,23.36
2016-07-29T01:10:37.984Z,23.43
2016-07-29T01:11:38.013Z,23.46
2016-07-29T01:12:38.037Z,23.43
2016-07-29T01:13:38.066Z,23.38
2016-07-29T01:14:38.088Z,23.42
2016-07-29T01:15:38.115Z,23.36
2016-07-29T01:16:38.146Z,23.36
2016-07-29T01:17:38.167Z,23.38
2016-07-29T01:18:38.207Z,23.38
2016-07-29T01:19:38.220Z,23.35
2016-07-29T01:20:38.256Z,23.47
2016-07-29T01:21:38.273Z,23.43
2016-07-29T01:22:38.299Z,23.39
2016-07-29T01:23:38.326Z,23.39
2016-07-29T01:24:38.353Z,23.39
2016-07-29T01:25:38.378Z,23.48
2016-07-29T01:26:38.404Z,23.4
2016-07-29T01:27:38.428Z,23.48
2016-07-29T01:28:38.458Z,23.5
2016-07-29T01:29:38.480Z,23.48
2016-07-29T01:30:38.508Z,23.42
2016-07-29T01:31:38.534Z,23.39
2016-07-29T01:32:38.558Z,23.43
2016-07-29T01:33:38.591Z,23.5
2016-07-29T01:34:38.610Z,23.46
2016-07-29T01:35:38.638Z,23.42
2016-07-29T01:36:38.661Z,23.46
2016-07-29T01:37:38.691Z,23.4
2016-07-29T01:38:38.717Z,23.42
2016-07-29T01:39:39.941Z,23.42
2016-07-29T01:40:38.780Z,23.36
2016-07-29T01:41:38.792Z,23.43
2016-07-29T01:42:38.822Z,23.42
2016-07-29T01:43:38.847Z,23.39
2016-07-29T01:44:38.871Z,23.38
2016-07-29T01:45:38.899Z,23.38
2016-07-29T01:46:38.926Z,23.46
2016-07-29T01:47:38.960Z,23.46
2016-07-29T01:48:38.979Z,23.38
2016-07-29T01:49:39.004Z,23.43
2016-07-29T01:50:39.030Z,23.39
2016-07-29T01:51:39.052Z,23.35
2016-07-29T01:52:39.082Z,23.5
2016-07-29T01:53:39.106Z,23.48
2016-07-29T01:54:39.133Z,23.39
2016-07-29T01:55:39.159Z,23.46
2016-07-29T01:56:39.185Z,23.4
2016-07-29T01:57:39.209Z,23.4
2016-07-29T01:58:39.232Z,23.33
2016-07-29T01:59:39.264Z,23.38
2016-07-29T02:00:39.288Z,23.36
2016-07-29T02:01:39.313Z,23.42
2016-07-29T02:02:39.341Z,23.46
2016-07-29T02:03:39.374Z,23.4
2016-07-29T02:04:39.392Z,23.47
2016-07-29T02:05:39.416Z,23.43
2016-07-29T02:06:39.442Z,23.4
2016-07-29T02:07:39.471Z,23.38
2016-07-29T02:08:39.496Z,23.38
2016-07-29T02:09:39.525Z,23.36
2016-07-29T02:10:39.549Z,23.4
2016-07-29T02:11:39.576Z,23.33
2016-07-29T02:12:39.603Z,23.32
2016-07-29T02:13:39.626Z,23.38
2016-07-29T02:14:39.655Z,23.36
2016-07-29T02:15:39.681Z,23.35
2016-07-29T02:16:39.707Z,23.43
2016-07-29T02:17:39.730Z,23.39
2016-07-29T02:18:39.759Z,23.35
2016-07-29T02:19:39.783Z,23.36
2016-07-29T02:20:39.809Z,23.42
2016-07-29T02:21:39.837Z,23.36
2016-07-29T02:22:39.861Z,23.38
2016-07-29T02:23:39.895Z,23.32
2016-07-29T02:24:39.912Z,23.35
2016-07-29T02:25:39.941Z,23.42
2016-07-29T02:26:39.967Z,23.48
2016-07-29T02:27:39.995Z,23.42
2016-07-29T02:28:40.019Z,23.33
2016-07-29T02:29:40.043Z,23.33
2016-07-29T02:30:40.075Z,23.35
2016-07-29T02:31:40.101Z,23.42
2016-07-29T02:32:40.125Z,23.46
2016-07-29T02:33:40.149Z,23.4
2016-07-29T02:34:40.177Z,23.35
2016-07-29T02:35:40.203Z,23.38
2016-07-29T02:36:40.230Z,23.35
2016-07-29T02:37:40.261Z,23.36
2016-07-29T02:38:40.277Z,23.39
2016-07-29T02:39:40.307Z,23.36
2016-07-29T02:40:40.331Z,23.39
2016-07-29T02:41:40.358Z,23.33
2016-07-29T02:42:40.385Z,23.38
2016-07-29T02:43:40.410Z,23.42
2016-07-29T02:44:40.441Z,23.33
2016-07-29T02:45:40.460Z,23.39
2016-07-29T02:46:40.489Z,23.4
2016-07-29T02:47:40.522Z,23.32
2016-07-29T02:48:40.542Z,23.36
2016-07-29T02:49:40.566Z,23.33
2016-07-29T02:50:40.592Z,23.35
2016-07-29T02:51:40.617Z,23.48
2016-07-29T02:52:40.643Z,23.42
2016-07-29T02:53:40.670Z,23.33
2016-07-29T02:54:40.694Z,23.39
2016-07-29T02:55:40.723Z,23.33
2016-07-29T02:56:40.749Z,23.35
2016-07-29T02:57:40.773Z,23.36
2016-07-29T02:58:40.801Z,23.38
2016-07-29T02:59:40.826Z,23.32
2016-07-29T03:00:40.853Z,23.33
2016-07-29T03:01:40.879Z,23.43
2016-07-29T03:02:40.907Z,23.32
2016-07-29T03:03:40.932Z,23.35
2016-07-29T03:04:40.955Z,23.33
2016-07-29T03:05:40.983Z,23.32
2016-07-29T03:06:41.009Z,23.4
2016-07-29T03:07:41.035Z,23.31
2016-07-29T03:08:41.063Z,23.32
2016-07-29T03:09:41.086Z,23.35
2016-07-29T03:10:41.815Z,23.39
2016-07-29T03:11:41.139Z,23.36
2016-07-29T03:12:41.869Z,23.4
2016-07-29T03:13:41.194Z,23.32
2016-07-29T03:14:41.215Z,23.36
2016-07-29T03:15:41.243Z,23.32
2016-07-29T03:16:41.267Z,23.38
2016-07-29T03:17:41.297Z,23.35
2016-07-29T03:18:41.319Z,23.36
2016-07-29T03:19:41.350Z,23.32
2016-07-29T03:20:41.374Z,23.38
2016-07-29T03:21:41.401Z,23.36
2016-07-29T03:22:41.434Z,23.39
2016-07-29T03:23:41.449Z,23.39
2016-07-29T03:24:41.479Z,23.27
2016-07-29T03:25:41.501Z,23.32
2016-07-29T03:26:41.530Z,23.4
2016-07-29T03:27:41.554Z,23.35
2016-07-29T03:28:41.595Z,23.38
2016-07-29T03:29:41.610Z,23.28
2016-07-29T03:30:41.635Z,23.4
2016-07-29T03:31:41.665Z,23.23
2016-07-29T03:32:41.692Z,23.38
2016-07-29T03:33:41.723Z,23.38
2016-07-29T03:34:41.743Z,23.35
2016-07-29T03:35:41.762Z,23.4
2016-07-29T03:36:41.796Z,23.39
2016-07-29T03:37:41.819Z,23.4
2016-07-29T03:38:41.840Z,23.39
2016-07-29T03:39:41.868Z,23.38
2016-07-29T03:40:41.893Z,23.38
2016-07-29T03:41:41.921Z,23.33
2016-07-29T03:42:41.944Z,23.33
2016-07-29T03:43:41.974Z,23.35
2016-07-29T03:44:41.997Z,23.35
2016-07-29T03:45:42.022Z,23.36
2016-07-29T03:46:42.052Z,23.47
2016-07-29T03:47:42.082Z,23.4
2016-07-29T03:48:42.108Z,23.33
2016-07-29T03:49:42.131Z,23.35
2016-07-29T03:50:42.157Z,23.32
2016-07-29T03:51:42.181Z,23.43
2016-07-29T03:52:42.208Z,23.42
2016-07-29T03:53:42.235Z,23.38
2016-07-29T03:54:42.258Z,23.46
2016-07-29T03:55:42.286Z,23.42
2016-07-29T03:56:42.310Z,23.4
2016-07-29T03:57:42.339Z,23.33
2016-07-29T03:58:42.365Z,23.38
2016-07-29T03:59:42.388Z,23.32
2016-07-29T04:00:42.417Z,23.35
2016-07-29T04:01:42.440Z,23.38
2016-07-29T04:03:42.495Z,23.38
2016-07-29T04:04:42.518Z,23.35
2016-07-29T04:05:42.548Z,23.35
2016-07-29T04:06:42.571Z,23.38
2016-07-29T04:07:42.599Z,23.31
2016-07-29T04:08:42.625Z,23.4
2016-07-29T04:09:42.653Z,23.36
2016-07-29T04:10:42.676Z,23.4
2016-07-29T04:11:42.703Z,23.39
2016-07-29T04:12:42.727Z,23.33
2016-07-29T04:13:42.755Z,23.39
2016-07-29T04:14:42.779Z,23.38
2016-07-29T04:15:42.806Z,23.38
2016-07-29T04:16:42.835Z,23.36
2016-07-29T04:17:42.858Z,23.35
2016-07-29T04:18:42.886Z,23.4
2016-07-29T04:19:42.910Z,23.42
2016-07-29T04:20:43.637Z,23.43
2016-07-29T04:21:42.967Z,23.47
2016-07-29T04:22:42.988Z,23.48
2016-07-29T04:23:43.016Z,23.47
2016-07-29T04:24:43.040Z,23.48
2016-07-29T04:25:43.068Z,23.42
2016-07-29T04:26:43.091Z,23.43
2016-07-29T04:27:43.119Z,23.48
2016-07-29T04:28:43.144Z,23.46
2016-07-29T04:29:43.169Z,23.42
2016-07-29T04:30:43.194Z,23.39
2016-07-29T04:31:43.222Z,23.47
2016-07-29T04:32:43.249Z,23.36
2016-07-29T04:33:43.276Z,23.43
2016-07-29T04:34:43.306Z,23.47
2016-07-29T04:35:43.327Z,23.55
2016-07-29T04:36:43.352Z,23.47
2016-07-29T04:37:43.379Z,23.5
2016-07-29T04:38:43.403Z,23.46
2016-07-29T04:39:43.432Z,23.33
2016-07-29T04:40:43.455Z,23.46
2016-07-29T04:41:43.483Z,23.39
2016-07-29T04:42:43.510Z,23.5
2016-07-29T04:43:43.533Z,23.51
2016-07-29T04:44:43.561Z,23.43
2016-07-29T04:45:43.593Z,23.43
2016-07-29T04:46:43.615Z,23.47
2016-07-29T04:47:43.644Z,23.39
2016-07-29T04:48:43.665Z,23.4
2016-07-29T04:49:43.691Z,23.42
2016-07-29T04:50:43.717Z,23.47
2016-07-29T04:51:43.742Z,23.53
2016-07-29T04:52:43.771Z,23.48
2016-07-29T04:53:43.797Z,23.46
2016-07-29T04:54:43.822Z,23.43
2016-07-29T04:55:43.859Z,23.46
2016-07-29T04:56:43.873Z,23.5
2016-07-29T04:57:43.901Z,23.53
2016-07-29T04:58:43.927Z,23.46
2016-07-29T04:59:43.954Z,23.5
2016-07-29T05:00:43.978Z,23.53
2016-07-29T05:01:44.003Z,23.32
2016-07-29T05:02:44.032Z,23.38
2016-07-29T05:03:44.054Z,23.39
2016-07-29T05:04:44.082Z,23.5
2016-07-29T05:05:44.109Z,23.47
2016-07-29T05:06:44.136Z,23.48
2016-07-29T05:07:44.168Z,23.51
2016-07-29T05:08:44.186Z,23.55
2016-07-29T05:09:44.211Z,23.51
2016-07-29T05:10:44.240Z,23.46
2016-07-29T05:11:44.267Z,23.48
2016-07-29T05:12:44.292Z,23.38
2016-07-29T05:13:44.317Z,23.42
2016-07-29T05:14:44.353Z,23.47
2016-07-29T05:15:44.372Z,23.46
2016-07-29T05:16:44.394Z,23.43
2016-07-29T05:17:44.423Z,23.53
2016-07-29T05:18:44.447Z,23.47
2016-07-29T05:19:44.471Z,23.51
2016-07-29T05:20:44.704Z,23.39
2016-07-29T05:21:45.222Z,23.48
2016-07-29T05:22:44.564Z,23.46
2016-07-29T05:23:44.577Z,23.42
2016-07-29T05:24:44.604Z,23.47
2016-07-29T05:25:44.632Z,23.46
2016-07-29T05:26:45.359Z,23.47
2016-07-29T05:27:44.679Z,23.53
2016-07-29T05:28:44.708Z,23.5
2016-07-29T05:29:44.736Z,23.57
2016-07-29T05:30:44.761Z,23.47
2016-07-29T05:31:44.786Z,23.55
2016-07-29T05:32:44.812Z,23.54
2016-07-29T05:33:44.841Z,23.54
2016-07-29T05:34:44.870Z,23.39
2016-07-29T05:35:44.893Z,23.47
2016-07-29T05:36:44.916Z,23.5
2016-07-29T05:37:44.945Z,23.54
2016-07-29T05:38:44.970Z,23.46
2016-07-29T05:39:44.999Z,23.47
2016-07-29T05:40:45.023Z,23.53
2016-07-29T05:41:45.048Z,23.55
2016-07-29T05:42:45.074Z,23.57
2016-07-29T05:43:45.098Z,23.55
2016-07-29T05:44:45.129Z,23.47
2016-07-29T05:45:45.152Z,23.43
2016-07-29T05:46:45.190Z,23.53
2016-07-29T05:47:45.208Z,23.58
2016-07-29T05:48:45.232Z,23.55
2016-07-29T05:49:45.264Z,23.55
2016-07-29T05:50:45.286Z,23.57
2016-07-29T05:51:45.311Z,23.55
2016-07-29T05:52:45.340Z,23.57
2016-07-29T05:53:45.360Z,23.55
2016-07-29T05:54:45.389Z,23.66
2016-07-29T05:55:45.414Z,23.66
2016-07-29T05:56:45.441Z,23.78
2016-07-29T05:57:45.466Z,23.73
2016-07-29T05:58:45.494Z,23.78
2016-07-29T05:59:45.525Z,23.73
2016-07-29T06:00:45.545Z,23.79
2016-07-29T06:01:45.572Z,23.78
2016-07-29T06:02:45.597Z,23.72
2016-07-29T06:03:45.625Z,23.8
2016-07-29T06:04:45.653Z,23.8
2016-07-29T06:05:45.680Z,23.84
2016-07-29T06:06:45.702Z,23.88
2016-07-29T06:07:45.730Z,23.84
2016-07-29T06:08:45.755Z,23.84
2016-07-29T06:09:45.780Z,23.93
2016-07-29T06:10:45.806Z,23.93
2016-07-29T06:11:45.837Z,23.98
2016-07-29T06:12:45.860Z,23.98
2016-07-29T06:13:45.885Z,24.03
2016-07-29T06:14:45.910Z,23.97
2016-07-29T06:15:45.939Z,24.05
2016-07-29T06:16:45.965Z,24.05
2016-07-29T06:17:45.989Z,24.1
2016-07-29T06:18:46.016Z,24.18
2016-07-29T06:19:46.041Z,24.28
2016-07-29T06:20:46.070Z,24.28
2016-07-29T06:21:46.093Z,24.28
2016-07-29T06:22:46.120Z,24.32
2016-07-29T06:23:46.149Z,24.25
2016-07-29T06:24:46.173Z,24.35
2016-07-29T06:25:46.200Z,24.45
2016-07-29T06:26:46.228Z,24.35
2016-07-29T06:27:46.253Z,24.39
2016-07-29T06:28:46.280Z,24.52
2016-07-29T06:29:46.313Z,24.52
2016-07-29T06:30:46.332Z,24.46
2016-07-29T06:31:46.357Z,24.47
2016-07-29T06:32:46.389Z,24.45
2016-07-29T06:33:46.403Z,24.49
2016-07-29T06:34:46.435Z,24.52
2016-07-29T06:35:46.465Z,24.52
2016-07-29T06:36:46.490Z,24.5
2016-07-29T06:37:46.515Z,24.62
2016-07-29T06:38:46.544Z,24.57
2016-07-29T06:39:47.832Z,24.61
2016-07-29T06:40:46.594Z,24.81
2016-07-29T06:41:46.623Z,24.78
2016-07-29T06:42:46.650Z,24.87
2016-07-29T06:43:47.370Z,24.88
2016-07-29T06:44:46.703Z,24.9
2016-07-29T06:45:46.729Z,24.78
2016-07-29T06:46:46.755Z,24.85
2016-07-29T06:47:46.786Z,24.91
2016-07-29T06:49:43.093Z,25.13
2016-07-29T06:50:43.109Z,25.18
2016-07-29T06:51:43.140Z,25.2
2016-07-29T06:52:43.204Z,25.14
2016-07-29T06:53:43.194Z,25.09
2016-07-29T06:54:43.225Z,25.39
2016-07-29T06:55:43.248Z,25.5
2016-07-29T06:56:43.272Z,25.55
2016-07-29T06:57:43.303Z,26.12
2016-07-29T06:58:43.328Z,26.05
2016-07-29T06:59:43.353Z,25.83
2016-07-29T07:00:43.383Z,25.61
2016-07-29T07:01:43.411Z,25.47
2016-07-29T07:02:43.441Z,25.4
2016-07-29T07:03:43.467Z,25.33
2016-07-29T07:04:43.494Z,25.38
2016-07-29T07:05:43.523Z,25.35
2016-07-29T07:06:43.551Z,25.25
2016-07-29T07:07:43.576Z,25.2
2016-07-29T07:08:43.603Z,25.18
2016-07-29T07:09:43.634Z,25.27
2016-07-29T07:10:43.660Z,25.27
2016-07-29T07:11:43.687Z,25.2
2016-07-29T07:12:43.718Z,25.25
2016-07-29T07:13:43.748Z,25.25
2016-07-29T07:14:43.770Z,25.28
2016-07-29T07:15:43.801Z,25.24
2016-07-29T07:16:43.826Z,25.21
2016-07-29T07:17:43.856Z,25.23
2016-07-29T07:18:43.883Z,25.23
2016-07-29T07:19:43.910Z,25.18
2016-07-29T07:20:43.941Z,25.2
2016-07-29T07:21:43.968Z,25.32
2016-07-29T07:22:43.993Z,25.27
2016-07-29T07:23:44.023Z,25.33
2016-07-29T07:24:44.054Z,25.36
2016-07-29T07:25:44.078Z,25.27
2016-07-29T07:26:44.107Z,25.39
2016-07-29T07:27:44.136Z,25.51
2016-07-29T07:28:44.162Z,25.64
2016-07-29T07:29:44.190Z,25.92
2016-07-29T07:30:44.218Z,25.94
2016-07-29T07:31:44.250Z,25.95
2016-07-29T07:32:44.276Z,25.9
2016-07-29T07:33:44.310Z,25.9
2016-07-29T07:34:44.331Z,25.72
2016-07-29T07:35:44.361Z,25.4
2016-07-29T07:36:44.386Z,25.24
2016-07-29T07:37:44.416Z,25.36
2016-07-29T07:38:44.444Z,25.35
2016-07-29T07:39:44.473Z,25.46
2016-07-29T07:40:44.502Z,25.52
2016-07-29T07:41:44.528Z,25.6
2016-07-29T07:42:44.560Z,25.52
2016-07-29T07:43:44.585Z,25.65
2016-07-29T07:44:44.623Z,25.61
2016-07-29T07:45:44.641Z,25.58
2016-07-29T07:46:44.669Z,25.52
2016-07-29T07:47:44.699Z,25.5
2016-07-29T07:48:44.725Z,25.62
2016-07-29T07:49:44.751Z,25.54
2016-07-29T07:50:44.782Z,25.58
2016-07-29T07:51:44.810Z,25.64
2016-07-29T07:52:44.837Z,25.73
2016-07-29T07:53:44.865Z,25.73
2016-07-29T07:54:44.896Z,25.75
2016-07-29T07:55:45.629Z,25.64
2016-07-29T07:56:45.662Z,25.67
2016-07-29T07:57:44.990Z,25.57
2016-07-29T07:58:45.005Z,25.61
2016-07-29T07:59:45.032Z,25.62
2016-07-29T08:00:45.064Z,25.7
2016-07-29T08:01:45.092Z,25.8
2016-07-29T08:02:45.115Z,25.77
2016-07-29T08:03:45.147Z,25.88
2016-07-29T08:04:45.183Z,25.83
2016-07-29T08:05:45.203Z,25.8
2016-07-29T08:06:45.230Z,25.91
2016-07-29T08:07:45.261Z,25.91
2016-07-29T08:08:45.289Z,26.02
2016-07-29T08:09:45.315Z,25.94
2016-07-29T08:10:45.345Z,25.95
2016-07-29T08:11:45.375Z,25.94
2016-07-29T08:12:45.407Z,25.9
2016-07-29T08:13:45.430Z,25.94
2016-07-29T08:14:45.458Z,25.95
2016-07-29T08:15:45.488Z,25.97
2016-07-29T08:16:45.517Z,26.02
2016-07-29T08:17:45.545Z,25.92
2016-07-29T08:18:45.572Z,25.99
2016-07-29T08:19:45.601Z,25.9
2016-07-29T08:20:46.322Z,25.9
2016-07-29T08:21:45.656Z,25.87
2016-07-29T08:22:45.686Z,25.91
2016-07-29T08:23:45.712Z,25.91
2016-07-29T08:24:45.743Z,25.88
2016-07-29T08:25:45.770Z,26.01
2016-07-29T08:26:45.799Z,25.95
2016-07-29T08:27:45.829Z,26.01
2016-07-29T08:28:45.858Z,26.1
2016-07-29T08:29:45.883Z,26.29
2016-07-29T08:30:45.913Z,26.44
2016-07-29T08:31:45.943Z,26.44
2016-07-29T08:32:45.977Z,26.48
2016-07-29T08:33:46.003Z,26.47
2016-07-29T08:34:46.027Z,26.4
2016-07-29T08:35:46.054Z,26.28
2016-07-29T08:36:46.082Z,26.23
2016-07-29T08:37:46.114Z,26.25
2016-07-29T08:38:46.141Z,26.29
2016-07-29T08:39:46.168Z,26.13
2016-07-29T08:40:46.205Z,26.06
2016-07-29T08:41:46.227Z,26.09
2016-07-29T08:42:46.255Z,26.05
2016-07-29T08:43:46.289Z,26.07
2016-07-29T08:44:46.310Z,26.02
2016-07-29T08:45:46.341Z,26.07
2016-07-29T08:46:46.367Z,26.1
2016-07-29T08:47:46.397Z,26.21
2016-07-29T08:48:46.439Z,26.23
2016-07-29T08:49:46.459Z,26.23
2016-07-29T08:50:46.479Z,26.21
2016-07-29T08:51:46.510Z,26.3
2016-07-29T08:52:46.542Z,26.36
2016-07-29T08:53:46.573Z,26.36
2016-07-29T08:54:46.599Z,26.44
2016-07-29T08:55:46.627Z,26.54
2016-07-29T08:56:46.655Z,26.55
2016-07-29T08:57:46.681Z,26.52
2016-07-29T08:58:46.710Z,26.55
2016-07-29T08:59:46.741Z,26.43
2016-07-29T09:00:46.770Z,26.39
2016-07-29T09:01:46.796Z,26.35
2016-07-29T09:02:46.826Z,26.3
2016-07-29T09:04:46.885Z,25.82
2016-07-29T09:05:47.616Z,25.62
2016-07-29T09:06:46.937Z,25.47
2016-07-29T09:07:46.970Z,25.5
2016-07-29T09:08:46.996Z,25.39
2016-07-29T09:09:47.027Z,25.23
2016-07-29T09:10:47.055Z,25.13
2016-07-29T09:11:47.078Z,25.13
2016-07-29T09:12:47.123Z,25.15
2016-07-29T09:13:47.136Z,25.2
2016-07-29T09:14:47.168Z,25.39
2016-07-29T09:15:47.199Z,25.54
2016-07-29T09:16:47.221Z,25.9
2016-07-29T09:17:47.252Z,26.02
2016-07-29T09:18:47.276Z,26.23
2016-07-29T09:19:47.312Z,26.3
2016-07-29T09:20:47.343Z,26.32
2016-07-29T09:21:47.363Z,26.33
2016-07-29T09:22:47.388Z,26.4
2016-07-29T09:23:47.419Z,26.45
2016-07-29T09:24:47.445Z,26.39
2016-07-29T09:25:47.477Z,26.39
2016-07-29T09:26:47.509Z,26.5
2016-07-29T09:27:47.533Z,26.52
2016-07-29T09:28:47.566Z,26.44
2016-07-29T09:29:47.590Z,26.47
2016-07-29T09:30:47.615Z,26.29
2016-07-29T09:31:47.644Z,26.23
2016-07-29T09:32:47.686Z,26.15
2016-07-29T09:33:47.701Z,26.17
2016-07-29T09:34:47.731Z,26.1
2016-07-29T09:35:47.757Z,26.07
2016-07-29T09:36:47.795Z,26.06
2016-07-29T09:37:47.822Z,26.13
2016-07-29T09:38:48.542Z,26.12
2016-07-29T09:39:47.876Z,26.17
2016-07-29T09:40:47.903Z,26.17
2016-07-29T09:41:47.932Z,26.18
2016-07-29T09:42:47.958Z,26.21
2016-07-29T09:43:47.988Z,26.12
2016-07-29T09:44:48.018Z,26.07
2016-07-29T09:45:48.046Z,26.07
2016-07-29T09:46:48.083Z,26.07
2016-07-29T09:47:48.103Z,26.26
2016-07-29T09:48:48.127Z,26.23
2016-07-29T09:49:48.159Z,26.12
2016-07-29T09:50:48.191Z,26.12
2016-07-29T09:51:48.213Z,26.09
2016-07-29T09:52:48.244Z,26.06
2016-07-29T09:53:48.275Z,25.98
2016-07-29T09:54:48.300Z,25.94
2016-07-29T09:55:48.330Z,25.94
2016-07-29T09:56:48.358Z,25.92
2016-07-29T09:57:48.390Z,25.85
2016-07-29T09:58:48.423Z,25.88
2016-07-29T09:59:48.447Z,25.9
2016-07-29T10:00:48.473Z,25.83
2016-07-29T10:01:48.501Z,25.88
2016-07-29T10:02:48.531Z,25.92
2016-07-29T10:03:48.559Z,25.88
2016-07-29T10:04:48.590Z,25.99
2016-07-29T10:05:48.613Z,26.07
2016-07-29T10:06:48.654Z,26.07
2016-07-29T10:07:48.676Z,26.02
2016-07-29T10:08:48.699Z,26.09
2016-07-29T10:09:48.730Z,26.12
2016-07-29T10:10:48.774Z,26.1
2016-07-29T10:11:48.785Z,26.13
2016-07-29T10:12:48.814Z,26.12
2016-07-29T10:13:48.845Z,26.15
2016-07-29T10:14:48.876Z,26.23
2016-07-29T10:15:48.904Z,26.3
2016-07-29T10:16:48.929Z,26.29
2016-07-29T10:17:48.957Z,26.4
2016-07-29T10:18:48.990Z,26.54
2016-07-29T10:19:49.026Z,26.58
2016-07-29T10:20:49.743Z,26.7
2016-07-29T10:21:49.082Z,26.7
2016-07-29T10:22:49.100Z,26.73
2016-07-29T10:23:49.131Z,26.75
2016-07-29T10:24:49.156Z,26.67
2016-07-29T10:25:49.186Z,26.67
2016-07-29T10:26:49.230Z,26.6
2016-07-29T10:27:49.248Z,26.54
2016-07-29T10:28:49.274Z,26.6
2016-07-29T10:29:49.303Z,26.48
2016-07-29T10:30:49.335Z,26.48
2016-07-29T10:31:49.361Z,26.51
2016-07-29T10:32:49.387Z,26.52
2016-07-29T10:33:49.420Z,26.54
2016-07-29T10:34:49.457Z,26.63
2016-07-29T10:35:49.472Z,26.58
2016-07-29T10:36:49.519Z,26.76
2016-07-29T10:37:49.534Z,26.8
2016-07-29T10:38:49.577Z,26.91
2016-07-29T10:39:49.590Z,26.92
2016-07-29T10:40:49.623Z,27.03
2016-07-29T10:41:49.654Z,27.04
2016-07-29T10:42:49.686Z,27.07
2016-07-29T10:43:49.706Z,27.14
2016-07-29T10:44:49.733Z,27.07
2016-07-29T10:45:49.766Z,27.24
2016-07-29T10:46:49.794Z,27.1
2016-07-29T10:47:49.822Z,27.17
2016-07-29T10:48:49.851Z,27.21
2016-07-29T10:49:49.879Z,27.24
2016-07-29T10:50:49.908Z,27.27
2016-07-29T10:51:49.939Z,27.28
2016-07-29T10:52:49.967Z,27.31
2016-07-29T10:53:49.997Z,27.34
2016-07-29T10:54:50.022Z,27.4
2016-07-29T10:55:50.053Z,27.34
2016-07-29T10:56:50.083Z,27.34
2016-07-29T10:57:50.111Z,27.32
2016-07-29T10:58:50.141Z,27.29
2016-07-29T10:59:50.168Z,27.37
2016-07-29T11:00:50.201Z,27.27
2016-07-29T11:01:50.228Z,27.25
2016-07-29T11:02:50.258Z,27.25
2016-07-29T11:03:50.285Z,27.32
2016-07-29T11:04:50.322Z,27.32
2016-07-29T11:05:50.351Z,27.18
2016-07-29T11:06:50.372Z,27.25
2016-07-29T11:07:50.402Z,27.25
2016-07-29T11:08:50.429Z,27.14
2016-07-29T11:09:50.460Z,27.24
2016-07-29T11:10:50.490Z,27.17
2016-07-29T11:11:50.517Z,27.21
2016-07-29T11:12:50.546Z,27.19
2016-07-29T11:13:50.575Z,27.19
2016-07-29T11:14:50.607Z,27.37
2016-07-29T11:15:50.634Z,27.25
2016-07-29T11:16:50.662Z,27.32
2016-07-29T11:17:50.694Z,27.34
2016-07-29T11:18:50.719Z,27.32
2016-07-29T11:19:50.751Z,27.22
2016-07-29T11:20:50.779Z,27.22
2016-07-29T11:21:50.809Z,27.28
2016-07-29T11:22:50.834Z,27.32
2016-07-29T11:23:50.863Z,27.4
2016-07-29T11:24:50.896Z,27.5
2016-07-29T11:25:50.921Z,27.47
2016-07-29T11:26:50.952Z,27.44
2016-07-29T11:27:50.980Z,27.46
2016-07-29T11:28:51.011Z,27.49
2016-07-29T11:29:51.041Z,27.54
2016-07-29T11:30:51.069Z,27.59
2016-07-29T11:31:51.096Z,27.49
2016-07-29T11:32:51.123Z,27.43
2016-07-29T11:33:51.157Z,27.43
2016-07-29T11:34:51.187Z,27.47
2016-07-29T11:35:51.215Z,27.47
2016-07-29T11:36:51.242Z,27.5
2016-07-29T11:37:51.285Z,27.59
2016-07-29T11:38:51.303Z,27.51
2016-07-29T11:39:51.331Z,27.65
2016-07-29T11:40:51.359Z,27.6
2016-07-29T11:41:51.392Z,27.55
2016-07-29T11:42:51.419Z,27.57
2016-07-29T11:43:51.446Z,27.6
2016-07-29T11:44:51.477Z,27.57
2016-07-29T11:45:51.506Z,27.47
2016-07-29T11:46:51.535Z,27.57
2016-07-29T11:47:51.562Z,27.47
2016-07-29T11:48:51.594Z,27.5
2016-07-29T11:49:51.623Z,27.46
2016-07-29T11:50:51.652Z,27.47
2016-07-29T11:51:51.679Z,27.49
2016-07-29T11:52:51.712Z,27.4
2016-07-29T11:53:51.740Z,27.31
2016-07-29T11:54:51.769Z,27.29
2016-07-29T11:55:51.794Z,27.49
2016-07-29T11:56:51.830Z,27.41
2016-07-29T11:57:51.862Z,27.43
2016-07-29T11:58:51.885Z,27.54
2016-07-29T11:59:51.914Z,27.46
2016-07-29T12:00:51.941Z,27.63
2016-07-29T12:01:51.972Z,27.65
2016-07-29T12:02:52.007Z,27.6
2016-07-29T12:03:52.031Z,27.67
2016-07-29T12:04:52.057Z,27.65
2016-07-29T12:05:52.090Z,27.69
2016-07-29T12:06:52.123Z,27.77
2016-07-29T12:07:52.143Z,27.75
2016-07-29T12:08:52.175Z,27.72
2016-07-29T12:09:52.203Z,27.65
2016-07-29T12:10:52.232Z,27.57
2016-07-29T12:11:52.960Z,27.55
2016-07-29T12:12:52.292Z,27.47
2016-07-29T12:13:52.320Z,27.4
2016-07-29T12:14:52.351Z,27.49
2016-07-29T12:15:52.377Z,27.46
2016-07-29T12:16:52.409Z,27.44
2016-07-29T12:17:52.438Z,27.43
2016-07-29T12:18:52.467Z,27.66
2016-07-29T12:19:52.494Z,27.78
2016-07-29T12:20:52.526Z,27.75
2016-07-29T12:21:52.553Z,27.6
2016-07-29T12:22:52.582Z,27.67
2016-07-29T12:23:52.613Z,27.62
2016-07-29T12:24:52.641Z,27.57
2016-07-29T12:25:52.676Z,27.47
2016-07-29T12:26:52.699Z,27.57
2016-07-29T12:27:52.730Z,27.5
2016-07-29T12:28:52.756Z,27.4
2016-07-29T12:29:52.783Z,27.43
2016-07-29T12:30:52.825Z,27.51
2016-07-29T12:31:52.844Z,27.4
2016-07-29T12:32:52.876Z,27.27
2016-07-29T12:33:52.905Z,27.31
2016-07-29T12:34:52.934Z,27.36
2016-07-29T12:35:52.973Z,27.4
2016-07-29T12:36:52.991Z,27.51
2016-07-29T12:37:53.022Z,27.49
2016-07-29T12:38:53.054Z,27.5
2016-07-29T12:39:53.078Z,27.51
2016-07-29T12:40:53.106Z,27.5
2016-07-29T12:41:53.135Z,27.44
2016-07-29T12:42:53.173Z,27.44
2016-07-29T12:43:53.196Z,27.5
2016-07-29T12:44:53.227Z,27.49
2016-07-29T12:45:53.952Z,27.44
2016-07-29T12:46:53.281Z,27.44
2016-07-29T12:47:53.312Z,27.47
2016-07-29T12:48:53.348Z,27.46
2016-07-29T12:49:53.375Z,27.49
2016-07-29T12:50:53.400Z,27.59
2016-07-29T12:51:53.427Z,27.7
2016-07-29T12:52:53.459Z,27.81
2016-07-29T12:53:53.488Z,27.87
2016-07-29T12:54:53.517Z,27.85
2016-07-29T12:55:53.557Z,27.78
2016-07-29T12:56:53.576Z,27.81
2016-07-29T12:57:53.614Z,27.78
2016-07-29T12:58:53.634Z,27.63
2016-07-29T12:59:53.663Z,27.47